St Helier, United Kingdom
Current Conditions -  °F | °C
As of 12:50 PM on Wednesday 22 Oct 2014 (Local Time) from EGJJ Reporting Station
Few Clouds Few Clouds  
Wind Chill: 59°   Ceiling: Unl
Heat Index: 59°   Visibility: 6mi
Dew Point: 46°   Wind: 16mph
Humidity: 63%   Direction: 280°W
Pressure: 30.39"   Gusts: NA
Location:  49.18°N, 2.1°W
Report Text: EGJJ 221150Z 28014KT 9999 FEW028 15/08 Q1029 NOSIG
Loading
Personal Weather Stations






























Interactive Weather Map New forecast layout! Learn more

10-Day Weather Forecast

Advertisements
Track Severe Weather on mobile